Time;durP1;ratioP1;P1;durP2;ratioP2;P2;SDS_P1;SDS_P2;PMS_P1;PMS_P2;Temp;Humidity;BMP_temperature;BMP_pressure;BME280_temperature;BME280_humidity;BME280_pressure;Samples;Min_cycle;Max_cycle;Signal;HPM_P1;HPM_P2
2021/03/12 00:04:56;;;;;;;37.42;20.15;;;;;;;3.52;100.00;98392.78;10277190;85;21156;-80
2021/03/12 00:20:00;;;;;;;38.33;21.07;;;;;;;3.40;100.00;98399.87;10179444;86;21056;-79
2021/03/12 00:35:08;;;;;;;33.38;19.00;;;;;;;3.50;100.00;98411.07;10185926;86;21116;-80
2021/03/12 00:50:18;;;;;;;52.80;27.67;;;;;;;3.59;100.00;98426.27;10189154;86;21627;-81
2021/03/12 01:05:23;;;;;;;49.83;24.07;;;;;;;3.50;100.00;98426.14;10210213;85;21107;-81
2021/03/12 01:20:32;;;;;;;46.48;24.90;;;;;;;3.65;100.00;98451.17;10348379;85;21099;-80
2021/03/12 01:35:37;;;;;;;34.55;18.87;;;;;;;3.85;100.00;98438.70;10263707;85;21108;-80
2021/03/12 01:50:46;;;;;;;21.50;13.58;;;;;;;4.09;100.00;98448.64;10350727;85;21556;-80
2021/03/12 02:05:51;;;;;;;25.35;12.03;;;;;;;4.11;100.00;98456.63;10209172;85;21060;-81
2021/03/12 02:20:59;;;;;;;28.15;14.07;;;;;;;4.11;100.00;98459.72;10319274;84;21052;-79
2021/03/12 02:36:07;;;;;;;20.62;11.70;;;;;;;4.10;100.00;98461.97;10207314;85;21050;-81
2021/03/12 02:51:13;;;;;;;22.25;10.98;;;;;;;4.06;100.00;98477.47;10320969;84;21078;-79
2021/03/12 03:06:18;;;;;;;11.15;6.58;;;;;;;4.09;100.00;98487.11;10316880;85;21508;-80
2021/03/12 03:21:24;;;;;;;11.03;5.92;;;;;;;4.08;100.00;98502.33;10384899;83;21165;-80
2021/03/12 03:36:29;;;;;;;47.50;20.88;;;;;;;4.15;100.00;98502.11;10418244;83;21168;-81
2021/03/12 03:51:34;;;;;;;30.92;14.15;;;;;;;4.31;100.00;98507.23;10255097;86;21101;-81
2021/03/12 04:06:42;;;;;;;15.88;8.90;;;;;;;4.14;100.00;98524.31;9475980;92;21094;-80
2021/03/12 04:21:46;;;;;;;;;;;;;;;4.05;100.00;98531.16;10222247;84;21033;-82
2021/03/12 04:36:52;;;;;;;14.55;6.28;;;;;;;3.96;100.00;98542.36;10275081;85;20163;-86
2021/03/12 04:51:57;;;;;;;16.52;8.00;;;;;;;3.86;100.00;98544.92;10127211;85;21099;-88
2021/03/12 05:07:04;;;;;;;20.55;10.00;;;;;;;3.68;100.00;98551.72;10109987;85;21092;-87
2021/03/12 05:22:09;;;;;;;28.07;12.47;;;;;;;3.56;100.00;98566.58;10047189;86;21065;-88
2021/03/12 05:37:13;;;;;;;22.73;8.55;;;;;;;3.70;100.00;98586.95;10062043;86;21143;-88
2021/03/12 05:52:18;;;;;;;21.23;13.10;;;;;;;3.78;100.00;98584.50;10160391;86;21159;-88
2021/03/12 06:07:22;;;;;;;18.37;8.48;;;;;;;4.04;100.00;98597.45;10235777;85;21146;-88
2021/03/12 06:22:28;;;;;;;20.20;7.55;;;;;;;4.20;100.00;98615.08;10455958;85;21110;-88
2021/03/12 06:37:35;;;;;;;16.32;7.75;;;;;;;4.27;100.00;98648.65;10341806;84;21080;-88
2021/03/12 06:52:40;;;;;;;40.57;23.47;;;;;;;4.60;100.00;98664.30;9922944;88;21241;-86
2021/03/12 07:07:44;;;;;;;23.38;12.98;;;;;;;4.56;100.00;98710.99;10187234;84;21167;-88
2021/03/12 07:22:50;;;;;;;129.82;46.83;;;;;;;4.87;100.00;98726.94;10252804;85;21103;-89
2021/03/12 07:37:56;;;;;;;54.13;27.30;;;;;;;4.91;100.00;98752.98;10240020;85;21095;-88
2021/03/12 07:53:02;;;;;;;48.45;26.40;;;;;;;5.16;100.00;98773.25;10288638;85;21032;-81
2021/03/12 08:08:30;;;;;;;50.10;25.92;;;;;;;5.32;100.00;98788.78;10282023;84;21154;-81
2021/03/12 08:23:36;;;;;;;47.93;21.37;;;;;;;5.69;100.00;98811.46;10239111;85;21045;-79
2021/03/12 08:38:45;;;;;;;27.75;14.68;;;;;;;5.77;100.00;98820.69;10245325;84;21122;-79
2021/03/12 08:53:57;;;;;;;19.70;9.48;;;;;;;5.78;100.00;98849.66;10246767;85;21125;-79
2021/03/12 09:09:03;;;;;;;16.07;7.85;;;;;;;5.89;100.00;98859.09;10364707;84;21454;-79
2021/03/12 09:24:08;;;;;;;26.50;11.40;;;;;;;6.52;100.00;98861.61;10315972;85;21550;-80
2021/03/12 09:39:18;;;;;;;19.25;9.55;;;;;;;6.91;100.00;98881.44;10257494;85;21105;-79
2021/03/12 09:54:25;;;;;;;21.95;11.25;;;;;;;6.79;100.00;98901.66;10252518;85;22155;-79
2021/03/12 10:09:30;;;;;;;96.83;32.93;;;;;;;6.66;100.00;98909.80;10252448;85;21029;-79
2021/03/12 10:24:35;;;;;;;29.12;10.88;;;;;;;7.33;100.00;98893.44;10292734;85;21119;-78
2021/03/12 10:39:45;;;;;;;10.68;6.95;;;;;;;6.91;100.00;98900.98;10288294;85;21308;-78
2021/03/12 10:54:51;;;;;;;23.32;8.00;;;;;;;8.00;96.43;98911.80;10243286;85;21032;-78
2021/03/12 11:09:56;;;;;;;41.58;18.00;;;;;;;7.05;98.50;98933.09;10311439;85;21064;-78
2021/03/12 11:25:01;;;;;;;17.50;9.23;;;;;;;7.12;99.25;98947.17;10414400;84;21016;-79
2021/03/12 11:40:09;;;;;;;19.80;10.90;;;;;;;7.58;91.15;98940.64;10264105;85;21659;-79
2021/03/12 11:55:13;;;;;;;;;;;;;;;7.57;92.79;98962.48;10214125;85;21080;-79
2021/03/12 12:10:18;;;;;;;42.80;18.45;;;;;;;7.30;92.21;98965.98;10211644;84;20155;-77
2021/03/12 12:25:22;;;;;;;49.10;23.02;;;;;;;7.54;93.34;98964.59;10245144;85;21040;-79
2021/03/12 12:40:29;;;;;;;22.02;10.38;;;;;;;7.90;91.51;98982.38;10329062;85;21103;-79
2021/03/12 12:55:36;;;;;;;21.48;10.80;;;;;;;7.75;89.58;98993.83;10223437;85;21134;-79
2021/03/12 13:10:44;;;;;;;55.25;23.45;;;;;;;7.75;90.15;98987.30;10112484;86;21136;-79
2021/03/12 13:25:54;;;;;;;115.90;44.85;;;;;;;7.57;92.76;99000.83;10157917;86;21114;-79
2021/03/12 13:41:02;;;;;;;41.75;16.67;;;;;;;6.68;96.56;99042.11;10044018;87;21068;-78
2021/03/12 13:56:07;;;;;;;29.73;12.07;;;;;;;5.82;100.00;99079.23;10061311;86;21110;-78
2021/03/12 14:11:13;;;;;;;14.07;5.58;;;;;;;11.70;83.93;99079.59;10281790;85;21051;-80
2021/03/12 14:26:19;;;;;;;141.80;66.95;;;;;;;8.41;83.73;99088.45;10365031;84;21107;-79
2021/03/12 14:41:24;;;;;;;41.90;28.55;;;;;;;6.88;100.00;99104.14;10193687;85;21080;-78
2021/03/12 14:56:28;;;;;;;16.20;8.68;;;;;;;6.79;100.00;99111.00;10208842;85;21067;-78
2021/03/12 15:11:32;;;;;;;56.95;23.35;;;;;;;18.39;60.04;99114.70;10134664;85;21112;-80
2021/03/12 15:26:37;;;;;;;34.70;15.72;;;;;;;19.26;52.65;99114.78;10043210;86;21125;-79
2021/03/12 15:41:42;;;;;;;98.87;47.17;;;;;;;10.36;61.80;99141.33;10054713;86;21057;-79
2021/03/12 15:56:51;;;;;;;81.00;32.53;;;;;;;9.99;66.65;99139.44;10135832;86;21108;-80
2021/03/12 16:11:55;;;;;;;30.35;15.53;;;;;;;8.25;75.98;99161.48;10143017;85;21151;-80
2021/03/12 16:27:02;;;;;;;54.08;20.88;;;;;;;7.22;85.30;99170.63;10155605;86;21588;-80
2021/03/12 16:42:08;;;;;;;65.97;24.43;;;;;;;8.60;79.72;99184.20;10161588;86;21021;-79
2021/03/12 16:57:14;;;;;;;19.55;9.10;;;;;;;6.77;83.77;99198.97;10160907;86;21053;-79
2021/03/12 17:12:19;;;;;;;15.25;8.03;;;;;;;6.26;84.88;99222.15;10272050;85;21103;-79
2021/03/12 17:27:24;;;;;;;29.82;12.55;;;;;;;5.96;86.00;99251.13;10181098;85;21107;-80
2021/03/12 17:42:28;;;;;;;27.22;11.80;;;;;;;5.60;90.92;99265.00;10180578;85;21834;-81
2021/03/12 17:57:51;;;;;;;84.67;34.45;;;;;;;5.25;100.00;99266.13;10218281;83;21204;-81
2021/03/12 18:12:56;;;;;;;92.72;33.20;;;;;;;4.99;100.00;99278.20;10371584;83;21544;-75
2021/03/12 18:28:00;;;;;;;55.52;23.40;;;;;;;4.77;100.00;99286.40;10442037;83;21181;-84
2021/03/12 18:43:06;;;;;;;88.03;66.20;;;;;;;4.52;100.00;99285.41;10102922;83;21246;-83
2021/03/12 18:58:10;;;;;;;148.10;83.90;;;;;;;4.42;100.00;99283.53;10398487;83;21183;-82
2021/03/12 19:13:16;;;;;;;128.93;73.35;;;;;;;4.24;100.00;99292.77;10673797;80;21150;-76
2021/03/12 19:28:22;;;;;;;49.60;22.70;;;;;;;4.05;100.00;99294.18;10692113;80;22475;-76
2021/03/12 19:43:27;;;;;;;48.58;21.42;;;;;;;4.03;100.00;99303.03;10570414;82;21143;-76
2021/03/12 19:58:31;;;;;;;35.98;16.65;;;;;;;4.00;100.00;99301.48;10536964;82;21035;-76
2021/03/12 20:13:36;;;;;;;39.83;19.77;;;;;;;3.76;100.00;99301.56;10562823;82;98673;-75
2021/03/12 20:28:41;;;;;;;38.55;18.55;;;;;;;3.65;100.00;99312.27;10408453;81;98498;-76
2021/03/12 20:43:46;;;;;;;31.05;13.65;;;;;;;3.72;100.00;99304.88;10373919;84;98626;-76
2021/03/12 20:58:50;;;;;;;29.80;15.32;;;;;;;3.73;100.00;99305.69;10495294;82;98702;-77
2021/03/12 21:13:55;;;;;;;28.67;11.13;;;;;;;3.65;100.00;99294.59;10442776;82;98579;-76
2021/03/12 21:28:59;;;;;;;29.45;13.50;;;;;;;3.55;100.00;99300.95;10564817;82;98518;-77
2021/03/12 21:44:05;;;;;;;28.10;11.85;;;;;;;3.70;100.00;99282.10;10453297;82;98530;-77
2021/03/12 21:59:10;;;;;;;18.12;10.03;;;;;;;3.74;100.00;99274.92;9931114;87;98663;-77
2021/03/12 22:14:14;;;;;;;26.37;10.18;;;;;;;3.63;100.00;99266.66;10125772;83;98412;-76
2021/03/12 22:29:21;;;;;;;25.90;11.10;;;;;;;3.69;100.00;99249.31;10527904;82;98654;-75
2021/03/12 22:44:25;;;;;;;34.92;12.93;;;;;;;3.53;100.00;99250.13;10612880;82;98572;-75
2021/03/12 22:59:30;;;;;;;27.75;12.05;;;;;;;3.53;100.00;99228.91;10604353;82;98630;-75
2021/03/12 23:14:34;;;;;;;27.58;12.20;;;;;;;3.57;100.00;99200.98;10400004;83;98581;-75
2021/03/12 23:29:39;;;;;;;24.57;10.08;;;;;;;3.42;100.00;99197.30;10378127;84;98604;-75
2021/03/12 23:44:44;;;;;;;23.80;12.43;;;;;;;3.38;100.00;99194.59;10427738;84;98586;-75
2021/03/12 23:59:48;;;;;;;23.27;11.95;;;;;;;3.27;100.00;99181.16;10427976;84;98633;-75
